createdAt,value
2019-06-01T00:02:11.285Z,99283.00
2019-06-01T00:04:51.800Z,99280.00
2019-06-01T00:07:32.854Z,99282.00
2019-06-01T00:10:13.859Z,99331.00
2019-06-01T00:12:54.646Z,99284.00
2019-06-01T00:15:35.335Z,99349.00
2019-06-01T00:18:16.521Z,99229.00
2019-06-01T00:20:57.897Z,99283.00
2019-06-01T00:23:38.634Z,99293.00
2019-06-01T00:26:19.193Z,99310.00
2019-06-01T00:29:00.585Z,99275.00
2019-06-01T00:31:41.325Z,99333.00
2019-06-01T00:34:22.850Z,99271.00
2019-06-01T00:37:04.507Z,99278.00
2019-06-01T00:39:45.808Z,99274.00
2019-06-01T00:42:26.909Z,99333.00
2019-06-01T00:45:07.500Z,99300.00
2019-06-01T00:47:48.927Z,99269.00
2019-06-01T00:50:29.452Z,99292.00
2019-06-01T00:53:10.778Z,99265.00
2019-06-01T00:55:51.598Z,99266.00
2019-06-01T00:58:32.815Z,99244.00
2019-06-01T01:01:13.840Z,99267.00
2019-06-01T01:03:55.359Z,99259.00
2019-06-01T01:06:36.074Z,99256.00
2019-06-01T01:09:17.609Z,99266.00
2019-06-01T01:11:59.041Z,99284.00
2019-06-01T01:14:39.668Z,99281.00
2019-06-01T01:17:20.462Z,99276.00
2019-06-01T01:20:01.994Z,99281.00
2019-06-01T01:22:42.723Z,99311.00
2019-06-01T01:25:23.320Z,99271.00
2019-06-01T01:28:04.328Z,99284.00
2019-06-01T01:31:00.564Z,99286.00
2019-06-01T01:33:27.726Z,99276.00
2019-06-01T01:36:08.505Z,99269.00
2019-06-01T01:38:50.483Z,99266.00
2019-06-01T01:41:31.158Z,99264.00
2019-06-01T01:44:12.698Z,99295.00
2019-06-01T01:46:53.419Z,99275.00
2019-06-01T01:49:34.107Z,99271.00
2019-06-01T01:52:15.307Z,99274.00
2019-06-01T01:54:56.809Z,99327.00
2019-06-01T01:57:38.190Z,99298.00
2019-06-01T02:00:19.666Z,99279.00
2019-06-01T02:03:00.403Z,99279.00
2019-06-01T02:05:41.895Z,99273.00
2019-06-01T02:08:23.508Z,99273.00
2019-06-01T02:11:04.284Z,99267.00
2019-06-01T02:13:44.936Z,99267.00
2019-06-01T02:16:26.260Z,99203.00
2019-06-01T02:19:07.445Z,99269.00
2019-06-01T02:21:49.144Z,99317.00
2019-06-01T02:24:30.787Z,99275.00
2019-06-01T02:27:11.391Z,99304.00
2019-06-01T02:29:53.146Z,99267.00
2019-06-01T02:32:34.470Z,99275.00
2019-06-01T02:35:15.280Z,99288.00
2019-06-01T02:37:56.460Z,99291.00
2019-06-01T02:40:37.752Z,99263.00
2019-06-01T02:43:19.225Z,99261.00
2019-06-01T02:46:00.434Z,99314.00
2019-06-01T02:48:41.720Z,99236.00
2019-06-01T02:51:22.677Z,99274.00
2019-06-01T02:54:04.114Z,99271.00
2019-06-01T02:56:45.257Z,99269.00
2019-06-01T02:59:26.799Z,99267.00
2019-06-01T03:02:12.527Z,99282.00
2019-06-01T03:04:50.783Z,99274.00
2019-06-01T03:07:31.473Z,99270.00
2019-06-01T03:10:12.195Z,99305.00
2019-06-01T03:12:53.162Z,99267.00
2019-06-01T03:15:34.384Z,99266.00
2019-06-01T03:18:15.044Z,99266.00
2019-06-01T03:20:55.731Z,99300.00
2019-06-01T03:23:36.682Z,99247.00
2019-06-01T03:26:17.944Z,99306.00
2019-06-01T03:29:00.109Z,99266.00
2019-06-01T03:31:40.917Z,99293.00
2019-06-01T03:34:21.602Z,99259.00
2019-06-01T03:37:03.210Z,99300.00
2019-06-01T03:39:44.074Z,99249.00
2019-06-01T03:42:24.966Z,99295.00
2019-06-01T03:45:06.107Z,99261.00
2019-06-01T03:47:47.469Z,99252.00
2019-06-01T03:50:28.119Z,99252.00
2019-06-01T03:53:09.968Z,99258.00
2019-06-01T03:55:51.822Z,99230.00
2019-06-01T03:58:32.951Z,99259.00
2019-06-01T04:01:14.551Z,99305.00
2019-06-01T04:03:55.649Z,99326.00
2019-06-01T04:06:37.128Z,99274.00
2019-06-01T04:09:17.795Z,99243.00
2019-06-01T04:11:58.801Z,99240.00
2019-06-01T04:14:40.008Z,99270.00
2019-06-01T04:17:20.789Z,99307.00
2019-06-01T04:20:02.251Z,99270.00
2019-06-01T04:22:42.959Z,99264.00
2019-06-01T04:25:23.900Z,99296.00
2019-06-01T04:28:08.157Z,99268.00
2019-06-01T04:30:49.197Z,99300.00
2019-06-01T04:33:30.954Z,99291.00
2019-06-01T04:36:11.641Z,99286.00
2019-06-01T04:38:53.045Z,99242.00
2019-06-01T04:41:34.523Z,99314.00
2019-06-01T04:44:18.169Z,99209.00
2019-06-01T04:46:58.061Z,99271.00
2019-06-01T04:52:21.651Z,99291.00
2019-06-01T04:55:05.063Z,99266.00
2019-06-01T04:57:46.154Z,99280.00
2019-06-01T05:00:28.215Z,99277.00
2019-06-01T05:03:10.438Z,99274.00
2019-06-01T05:05:52.424Z,99276.00
2019-06-01T05:08:33.930Z,99274.00
2019-06-01T05:11:15.700Z,99271.00
2019-06-01T05:13:57.297Z,99280.00
2019-06-01T05:16:38.897Z,99267.00
2019-06-01T05:19:19.604Z,99274.00
2019-06-01T05:22:01.247Z,99266.00
2019-06-01T05:24:42.829Z,99300.00
2019-06-01T05:27:23.657Z,99204.00
2019-06-01T05:30:05.130Z,99271.00
2019-06-01T05:32:47.116Z,99270.00
2019-06-01T05:35:28.196Z,99293.00
2019-06-01T05:38:10.068Z,99277.00
2019-06-01T05:40:50.995Z,99304.00
2019-06-01T05:43:31.954Z,99273.00
2019-06-01T05:46:14.039Z,99271.00
2019-06-01T05:48:55.653Z,99268.00
2019-06-01T05:51:35.384Z,99273.00
2019-06-01T05:54:16.672Z,99231.00
2019-06-01T05:56:57.728Z,99273.00
2019-06-01T05:59:39.123Z,99270.00
2019-06-01T06:02:21.520Z,99270.00
2019-06-01T06:05:03.151Z,99238.00
2019-06-01T06:07:43.957Z,99268.00
2019-06-01T06:10:25.525Z,99247.00
2019-06-01T06:13:07.054Z,99275.00
2019-06-01T06:15:48.495Z,99280.00
2019-06-01T06:18:29.479Z,99220.00
2019-06-01T06:21:10.551Z,99282.00
2019-06-01T06:23:51.178Z,99299.00
2019-06-01T06:26:32.140Z,99200.00
2019-06-01T06:29:14.725Z,99311.00
2019-06-01T06:31:56.329Z,99272.00
2019-06-01T06:34:37.171Z,99282.00
2019-06-01T06:37:19.679Z,99295.00
2019-06-01T06:40:00.764Z,99282.00
2019-06-01T06:42:41.559Z,99281.00
2019-06-01T06:45:22.897Z,99319.00
2019-06-01T06:48:04.164Z,99281.00
2019-06-01T06:50:45.641Z,99284.00
2019-06-01T06:53:34.797Z,99308.00
2019-06-01T06:56:10.560Z,99286.00
2019-06-01T06:58:51.379Z,99246.00
2019-06-01T07:01:38.007Z,99318.00
2019-06-01T07:04:19.484Z,99313.00
2019-06-01T07:07:00.420Z,99285.00
2019-06-01T07:09:41.608Z,99194.00
2019-06-01T07:12:23.278Z,99320.00
2019-06-01T07:15:04.056Z,99285.00
2019-06-01T07:17:45.428Z,99231.00
2019-06-01T07:20:27.932Z,99213.00
2019-06-01T07:23:09.637Z,99277.00
2019-06-01T07:25:50.417Z,99276.00
2019-06-01T07:28:32.452Z,99216.00
2019-06-01T07:31:13.587Z,99214.00
2019-06-01T07:33:54.216Z,99284.00
2019-06-01T07:36:34.785Z,99283.00
2019-06-01T07:39:16.527Z,99280.00
2019-06-01T07:41:57.991Z,99292.00
2019-06-01T07:44:39.305Z,99268.00
2019-06-01T07:47:20.769Z,99272.00
2019-06-01T07:50:01.865Z,99238.00
2019-06-01T07:52:43.478Z,99264.00
2019-06-01T07:55:25.393Z,99298.00
2019-06-01T07:58:06.795Z,99273.00
2019-06-01T08:00:48.268Z,99309.00
2019-06-01T08:03:32.914Z,99268.00
2019-06-01T08:06:12.007Z,99315.00
2019-06-01T08:08:52.974Z,99263.00
2019-06-01T08:11:35.185Z,99233.00
2019-06-01T08:14:16.312Z,99300.00
2019-06-01T08:16:57.929Z,99273.00
2019-06-01T08:19:39.827Z,99380.00
2019-06-01T08:22:21.985Z,99280.00
2019-06-01T08:25:02.919Z,99257.00
2019-06-01T08:27:43.932Z,99266.00
2019-06-01T08:30:24.640Z,99255.00
2019-06-01T08:33:05.652Z,99296.00
2019-06-01T08:35:46.495Z,99252.00
2019-06-01T08:38:29.508Z,99259.00
2019-06-01T08:41:11.117Z,99257.00
2019-06-01T08:43:52.338Z,99248.00
2019-06-01T08:46:34.065Z,99236.00
2019-06-01T08:49:15.567Z,99281.00
2019-06-01T08:51:56.979Z,99254.00
2019-06-01T08:54:37.740Z,99251.00
2019-06-01T08:57:19.227Z,99240.00
2019-06-01T09:00:00.993Z,99233.00
2019-06-01T09:02:42.383Z,99253.00
2019-06-01T09:05:26.203Z,99262.00
2019-06-01T09:08:06.684Z,99234.00
2019-06-01T09:10:47.799Z,99244.00
2019-06-01T09:13:29.239Z,99229.00
2019-06-01T09:16:09.967Z,99233.00
2019-06-01T09:18:50.729Z,99233.00
2019-06-01T09:21:33.544Z,99191.00
2019-06-01T09:24:15.008Z,99254.00
2019-06-01T09:26:55.898Z,99202.00
2019-06-01T09:29:37.423Z,99225.00
2019-06-01T09:32:18.102Z,99223.00
2019-06-01T09:34:59.597Z,99221.00
2019-06-01T09:37:41.319Z,99225.00
2019-06-01T09:40:21.996Z,99227.00
2019-06-01T09:43:02.989Z,99238.00
2019-06-01T09:45:44.397Z,99165.00
2019-06-01T09:48:27.046Z,99216.00
2019-06-01T09:51:08.880Z,99255.00
2019-06-01T09:57:09.580Z,99220.00
2019-06-01T09:59:50.315Z,99214.00
2019-06-01T10:06:01.512Z,99126.00
2019-06-01T10:08:36.019Z,99191.00
2019-06-01T10:11:17.211Z,99209.00
2019-06-01T10:13:58.008Z,99204.00
2019-06-01T10:16:39.660Z,99207.00
2019-06-01T10:19:20.659Z,99210.00
2019-06-01T10:22:01.801Z,99203.00
2019-06-01T10:24:43.228Z,99214.00
2019-06-01T10:27:24.676Z,99200.00
2019-06-01T10:30:06.498Z,99171.00
2019-06-01T10:32:47.689Z,99217.00
2019-06-01T10:35:28.665Z,99195.00
2019-06-01T10:38:09.558Z,99150.00
2019-06-01T10:40:50.573Z,99194.00
2019-06-01T10:43:31.526Z,99191.00
2019-06-01T10:46:12.232Z,99193.00
2019-06-01T10:48:52.987Z,99181.00
2019-06-01T10:51:34.088Z,99196.00
2019-06-01T10:54:15.440Z,99179.00
2019-06-01T10:56:56.876Z,99227.00
2019-06-01T10:59:38.473Z,99192.00
2019-06-01T11:02:20.374Z,99173.00
2019-06-01T11:05:01.385Z,99205.00
2019-06-01T11:07:43.105Z,99166.00
2019-06-01T11:10:24.180Z,99173.00
2019-06-01T11:13:05.679Z,99192.00
2019-06-01T11:15:46.496Z,99163.00
2019-06-01T11:18:28.184Z,99156.00
2019-06-01T11:21:08.810Z,99163.00
2019-06-01T11:23:49.630Z,99158.00
2019-06-01T11:29:42.905Z,99175.00
2019-06-01T11:32:18.892Z,99150.00
2019-06-01T11:34:59.652Z,99152.00
2019-06-01T11:37:40.537Z,99149.00
2019-06-01T11:40:21.425Z,99153.00
2019-06-01T11:43:04.270Z,99148.00
2019-06-01T11:45:45.808Z,99157.00
2019-06-01T11:48:27.249Z,99178.00
2019-06-01T11:51:08.867Z,99159.00
2019-06-01T11:53:50.520Z,99141.00
2019-06-01T11:56:31.799Z,99144.00
2019-06-01T11:59:12.507Z,99140.00
2019-06-01T12:01:53.446Z,99136.00
2019-06-01T12:04:35.760Z,99150.00
2019-06-01T12:07:18.409Z,99128.00
2019-06-01T12:09:59.379Z,99124.00
2019-06-01T12:12:40.314Z,99123.00
2019-06-01T12:15:21.383Z,99121.00
2019-06-01T12:18:02.796Z,99057.00
2019-06-01T12:20:44.918Z,99054.00
2019-06-01T12:23:26.238Z,99112.00
2019-06-01T12:26:07.622Z,99116.00
2019-06-01T12:28:53.011Z,99147.00
2019-06-01T12:31:34.545Z,99154.00
2019-06-01T12:34:15.407Z,99099.00
2019-06-01T12:36:56.988Z,99097.00
2019-06-01T12:39:38.492Z,99075.00
2019-06-01T12:42:19.238Z,99090.00
2019-06-01T12:47:43.922Z,99091.00
2019-06-01T12:50:24.676Z,99104.00
2019-06-01T12:53:06.148Z,99081.00
2019-06-01T12:55:47.012Z,99088.00
2019-06-01T12:58:28.578Z,99076.00
2019-06-01T13:01:09.542Z,99122.00
2019-06-01T13:03:51.684Z,99114.00
2019-06-01T13:06:32.629Z,99070.00
2019-06-01T13:09:14.130Z,99089.00
2019-06-01T13:11:55.632Z,99052.00
2019-06-01T13:14:36.380Z,99053.00
2019-06-01T13:17:17.032Z,99054.00
2019-06-01T13:19:57.783Z,99104.00
2019-06-01T13:22:38.986Z,99056.00
2019-06-01T13:25:20.450Z,99040.00
2019-06-01T13:28:01.283Z,99036.00
2019-06-01T13:30:45.512Z,99017.00
2019-06-01T13:33:25.486Z,99034.00
2019-06-01T13:36:06.932Z,99031.00
2019-06-01T13:38:48.719Z,99058.00
2019-06-01T13:41:30.292Z,99052.00
2019-06-01T13:44:11.466Z,99042.00
2019-06-01T13:46:53.723Z,99022.00
2019-06-01T13:49:35.279Z,99015.00
2019-06-01T13:52:16.179Z,99051.00
2019-06-01T13:54:57.165Z,99056.00
2019-06-01T13:57:39.554Z,99013.00
2019-06-01T14:00:29.673Z,99041.00
2019-06-01T14:03:03.606Z,99012.00
2019-06-01T14:05:44.714Z,99002.00
2019-06-01T14:08:29.199Z,99005.00
2019-06-01T14:11:08.776Z,99037.00
2019-06-01T14:13:49.921Z,98997.00
2019-06-01T14:16:31.521Z,99003.00
2019-06-01T14:19:13.201Z,99004.00
2019-06-01T14:21:54.208Z,99028.00
2019-06-01T14:24:35.878Z,99003.00
2019-06-01T14:27:17.284Z,98989.00
2019-06-01T14:29:59.154Z,98936.00
2019-06-01T14:32:40.467Z,98966.00
2019-06-01T14:35:21.409Z,98969.00
2019-06-01T14:38:02.800Z,99035.00
2019-06-01T14:40:43.563Z,98955.00
2019-06-01T14:43:24.809Z,99007.00
2019-06-01T14:46:05.762Z,98999.00
2019-06-01T14:48:47.404Z,99019.00
2019-06-01T14:51:29.130Z,98895.00
2019-06-01T14:54:10.687Z,98922.00
2019-06-01T14:56:51.800Z,98968.00
2019-06-01T14:59:33.112Z,98973.00
2019-06-01T15:02:13.857Z,98966.00
2019-06-01T15:04:56.430Z,98958.00
2019-06-01T15:07:38.001Z,98967.00
2019-06-01T15:10:19.329Z,98969.00
2019-06-01T15:13:03.253Z,98963.00
2019-06-01T15:15:43.482Z,99006.00
2019-06-01T15:18:24.951Z,99006.00
2019-06-01T15:21:06.475Z,98960.00
2019-06-01T15:23:47.127Z,98959.00
2019-06-01T15:26:28.453Z,98958.00
2019-06-01T15:29:10.094Z,98904.00
2019-06-01T15:31:51.199Z,98952.00
2019-06-01T15:34:32.493Z,98954.00
2019-06-01T15:37:13.229Z,98945.00
2019-06-01T15:39:54.645Z,98966.00
2019-06-01T15:42:35.646Z,98946.00
2019-06-01T15:45:16.367Z,98985.00
2019-06-01T15:47:57.935Z,98938.00
2019-06-01T15:50:39.243Z,98934.00
2019-06-01T15:53:20.004Z,98937.00
2019-06-01T15:56:01.512Z,98966.00
2019-06-01T15:58:52.504Z,98935.00
2019-06-01T16:01:25.548Z,98945.00
2019-06-01T16:04:07.006Z,98939.00
2019-06-01T16:06:47.850Z,98932.00
2019-06-01T16:09:42.267Z,98952.00
2019-06-01T16:12:11.832Z,98884.00
2019-06-01T16:14:53.380Z,98925.00
2019-06-01T16:17:34.318Z,98903.00
2019-06-01T16:20:15.199Z,98929.00
2019-06-01T16:22:56.645Z,98955.00
2019-06-01T16:28:46.685Z,98960.00
2019-06-01T16:31:27.626Z,98925.00
2019-06-01T16:34:08.318Z,98931.00
2019-06-01T16:36:49.486Z,98923.00
2019-06-01T16:39:30.782Z,98932.00
2019-06-01T16:42:11.553Z,98947.00
2019-06-01T16:44:53.076Z,98945.00
2019-06-01T16:47:33.699Z,98904.00
2019-06-01T16:50:14.522Z,98946.00
2019-06-01T16:52:56.302Z,98903.00
2019-06-01T16:55:37.394Z,98908.00
2019-06-01T16:58:18.067Z,98903.00
2019-06-01T17:00:58.790Z,98999.00
2019-06-01T17:03:39.506Z,98906.00
2019-06-01T17:06:21.089Z,98901.00
2019-06-01T17:09:03.636Z,98898.00
2019-06-01T17:11:44.256Z,98878.00
2019-06-01T17:14:25.267Z,98935.00
2019-06-01T17:17:07.448Z,98905.00
2019-06-01T17:19:48.367Z,98906.00
2019-06-01T17:22:30.027Z,98909.00
2019-06-01T17:25:10.825Z,98853.00
2019-06-01T17:27:52.191Z,98905.00
2019-06-01T17:30:33.084Z,98905.00
2019-06-01T17:33:13.862Z,98908.00
2019-06-01T17:35:55.325Z,98901.00
2019-06-01T17:38:35.930Z,98901.00
2019-06-01T17:41:17.164Z,98921.00
2019-06-01T17:43:58.066Z,98809.00
2019-06-01T17:46:53.133Z,98893.00
2019-06-01T17:49:21.427Z,98915.00
2019-06-01T17:52:03.708Z,98919.00
2019-06-01T17:54:45.242Z,98896.00
2019-06-01T17:57:26.772Z,98892.00
2019-06-01T18:00:07.669Z,98886.00
2019-06-01T18:02:49.194Z,98828.00
2019-06-01T18:05:30.122Z,98892.00
2019-06-01T18:08:12.659Z,98894.00
2019-06-01T18:10:55.052Z,98895.00
2019-06-01T18:13:36.856Z,98958.00
2019-06-01T18:16:18.049Z,98934.00
2019-06-01T18:18:59.645Z,98914.00
2019-06-01T18:21:41.210Z,98882.00
2019-06-01T18:24:22.966Z,98894.00
2019-06-01T18:27:04.484Z,98928.00
2019-06-01T18:29:48.807Z,98897.00
2019-06-01T18:32:29.306Z,98894.00
2019-06-01T18:35:11.398Z,98870.00
2019-06-01T18:37:52.765Z,98890.00
2019-06-01T18:40:34.360Z,98904.00
2019-06-01T18:43:16.072Z,98936.00
2019-06-01T18:45:57.786Z,98926.00
2019-06-01T18:48:39.528Z,98889.00
2019-06-01T18:51:23.930Z,98897.00
2019-06-01T18:54:06.669Z,98937.00
2019-06-01T18:56:48.158Z,98940.00
2019-06-01T18:59:29.396Z,98897.00
2019-06-01T19:02:11.180Z,98904.00
2019-06-01T19:04:53.015Z,98833.00
2019-06-01T19:07:34.572Z,98901.00
2019-06-01T19:10:16.254Z,98935.00
2019-06-01T19:12:56.960Z,98930.00
2019-06-01T19:15:37.825Z,98840.00
2019-06-01T19:18:19.452Z,98822.00
2019-06-01T19:21:00.825Z,98903.00
2019-06-01T19:23:42.109Z,98905.00
2019-06-01T19:26:23.848Z,98902.00
2019-06-01T19:29:06.636Z,98838.00
2019-06-01T19:31:48.289Z,98912.00
2019-06-01T19:34:28.970Z,98916.00
2019-06-01T19:37:10.978Z,98955.00
2019-06-01T19:39:52.187Z,98925.00
2019-06-01T19:42:33.436Z,98954.00
2019-06-01T19:45:27.779Z,98927.00
2019-06-01T19:47:58.549Z,98920.00
2019-06-01T19:50:39.961Z,98921.00
2019-06-01T19:53:21.513Z,98925.00
2019-06-01T19:56:02.463Z,98921.00
2019-06-01T19:58:44.081Z,98954.00
2019-06-01T20:01:25.684Z,98954.00
2019-06-01T20:04:07.312Z,98924.00
2019-06-01T20:06:50.187Z,98930.00
2019-06-01T20:09:46.116Z,98925.00
2019-06-01T20:12:27.297Z,98924.00
2019-06-01T20:15:08.112Z,98927.00
2019-06-01T20:17:48.825Z,98922.00
2019-06-01T20:20:30.383Z,98946.00
2019-06-01T20:23:11.342Z,98973.00
2019-06-01T20:25:52.338Z,98925.00
2019-06-01T20:28:33.821Z,98966.00
2019-06-01T20:31:15.738Z,98939.00
2019-06-01T20:33:57.350Z,98937.00
2019-06-01T20:36:38.900Z,98931.00
2019-06-01T20:39:20.324Z,98965.00
2019-06-01T20:42:17.254Z,98942.00
2019-06-01T20:44:43.798Z,98938.00
2019-06-01T20:47:25.254Z,98941.00
2019-06-01T20:50:05.957Z,98946.00
2019-06-01T20:52:47.451Z,98907.00
2019-06-01T20:55:28.656Z,98935.00
2019-06-01T20:58:10.173Z,98938.00
2019-06-01T21:00:51.192Z,98951.00
2019-06-01T21:03:32.421Z,98937.00
2019-06-01T21:06:13.964Z,98929.00
2019-06-01T21:08:55.730Z,98933.00
2019-06-01T21:11:37.246Z,98917.00
2019-06-01T21:14:18.343Z,98938.00
2019-06-01T21:16:59.816Z,98938.00
2019-06-01T21:19:41.279Z,98941.00
2019-06-01T21:22:24.922Z,98933.00
2019-06-01T21:25:05.994Z,98974.00
2019-06-01T21:27:46.718Z,98913.00
2019-06-01T21:30:27.670Z,98973.00
2019-06-01T21:35:57.033Z,98932.00
2019-06-01T21:42:11.665Z,98944.00
2019-06-01T21:45:23.722Z,98930.00
2019-06-01T22:01:03.062Z,98960.00
2019-06-01T22:03:56.551Z,98974.00
2019-06-01T22:06:28.495Z,98826.00
2019-06-01T22:09:13.163Z,98907.00
2019-06-01T22:14:43.876Z,98993.00
2019-06-01T22:17:25.832Z,98939.00
2019-06-01T22:20:07.224Z,98940.00
2019-06-01T22:22:48.496Z,98976.00
2019-06-01T22:25:29.246Z,98902.00
2019-06-01T22:28:11.193Z,98975.00
2019-06-01T22:31:24.533Z,98937.00
2019-06-01T22:33:42.215Z,98987.00
2019-06-01T22:36:22.936Z,98839.00
2019-06-01T22:39:04.693Z,98928.00
2019-06-01T22:41:45.671Z,98877.00
2019-06-01T22:44:28.483Z,98861.00
2019-06-01T22:47:17.639Z,98983.00
2019-06-01T22:53:06.747Z,98920.00
2019-06-01T22:55:47.647Z,98933.00
2019-06-01T22:58:29.613Z,98933.00
2019-06-01T23:01:10.927Z,98923.00
2019-06-01T23:03:52.408Z,98931.00
2019-06-01T23:06:33.751Z,98928.00
2019-06-01T23:12:11.710Z,98938.00
2019-06-01T23:18:01.319Z,98929.00
2019-06-01T23:20:41.842Z,98918.00
2019-06-01T23:23:46.540Z,98910.00
2019-06-01T23:32:13.574Z,98917.00
2019-06-01T23:34:57.613Z,98911.00
2019-06-01T23:44:24.857Z,98900.00
2019-06-01T23:46:16.495Z,98892.00
2019-06-01T23:49:02.705Z,98888.00
2019-06-01T23:51:49.003Z,98884.00
